Yerupaja — 9V2351 — position and weather

sailwx.info

Track history (hours):
 
Tides and Currents Weather Stations Pressure Air Temp Water Temp Dewpoint Dewpoint Depression Visibility Wind Speed Wind Dir Waves Ship Positions

Yerupaja

Last reported at 2017-Dec-14 18:30 UTC. Time now 2017-Dec-15 16:07 UTC.
Position N 09°21' W 079°53'.

Length 140 m; draft 6.1 m.

Type: Ship (hazmat cat A). MMSI: 563587000.

Date/timePositionNaut miles runAvg speedWind from/ knotsBaromVisibWave heightAir tempDewpointWater temp
2017-Dec-14 18:30N 09°21' W 079°53'0 0.0
2017-Dec-14 18:00N 09°21' W 079°53'0 0.0
2017-Dec-14 17:30N 09°21' W 079°53'0 0.0
2017-Dec-14 17:00N 09°21' W 079°53'0 0.0
2017-Dec-14 16:30N 09°21' W 079°53'0 0.0
2017-Dec-14 16:00N 09°21' W 079°53'0 0.0
2017-Dec-14 15:00N 09°21' W 079°53'0 0.0
2017-Dec-14 14:30N 09°21' W 079°53'0 0.0
2017-Dec-14 14:00N 09°21' W 079°53'0 0.0
2017-Dec-14 13:30N 09°21' W 079°53'0 0.0
2017-Dec-14 13:00N 09°21' W 079°53'0 0.0
2017-Dec-14 12:30N 09°21' W 079°53'1 2.2
2017-Dec-14 12:00N 09°22' W 079°54'4 8.2
2017-Dec-14 11:30N 09°26' W 079°52'1 0.8
2017-Dec-14 10:52N 09°27' W 079°52'0 0.0
2017-Dec-14 10:28N 09°27' W 079°52'0 0.0
2017-Dec-14 09:57N 09°27' W 079°52'0 0.0
2017-Dec-14 09:29N 09°27' W 079°52'0 0.0
2017-Dec-14 08:59N 09°27' W 079°52'0 0.0
2017-Dec-14 08:28N 09°27' W 079°52'0 0.0
2017-Dec-14 08:00N 09°27' W 079°52'0 0.0
2017-Dec-14 07:30N 09°27' W 079°52'0 0.0
2017-Dec-14 07:00N 09°27' W 079°52'0 0.0
2017-Dec-14 06:29N 09°27' W 079°52'0 0.1
2017-Dec-14 06:00N 09°27' W 079°52'0 0.0
2017-Dec-14 05:30N 09°27' W 079°52'0 0.0
2017-Dec-14 04:59N 09°27' W 079°52'0 0.0
2017-Dec-14 04:30N 09°27' W 079°52'0 0.0
2017-Dec-14 04:00N 09°27' W 079°52'0 0.0
2017-Dec-14 03:30N 09°27' W 079°52'0 0.0
2017-Dec-14 03:00N 09°27' W 079°52'0 0.1
2017-Dec-14 02:29N 09°27' W 079°52'0 0.1
2017-Dec-14 02:00N 09°27' W 079°52'0 0.0
2017-Dec-14 01:31N 09°27' W 079°52'0 0.0
2017-Dec-14 01:00N 09°27' W 079°52'0 0.0
2017-Dec-14 00:30N 09°27' W 079°52'0 0.0
2017-Dec-13 23:59N 09°27' W 079°52'0 0.0
2017-Dec-13 23:31N 09°27' W 079°52'0 0.2
2017-Dec-13 23:00N 09°27' W 079°52'2 4.4
2017-Dec-13 22:31N 09°25' W 079°54'3 4.7
2017-Dec-13 21:59N 09°22' W 079°53'0 0.0
2017-Dec-13 21:29N 09°22' W 079°53'0 0.0
2017-Dec-13 20:59N 09°22' W 079°53'0 0.0
2017-Dec-13 20:29N 09°22' W 079°53'0 0.0
2017-Dec-13 19:59N 09°22' W 079°53'0 0.0
2017-Dec-13 19:29N 09°22' W 079°53'0 0.0
2017-Dec-13 18:56N 09°22' W 079°53'0 0.0
2017-Dec-13 18:29N 09°22' W 079°53'0 0.0
2017-Dec-13 17:59N 09°22' W 079°53'0 0.0
2017-Dec-13 17:29N 09°22' W 079°53'0 0.0
2017-Dec-13 16:59N 09°22' W 079°53'0 0.0
2017-Dec-13 16:29N 09°22' W 079°53'0 0.2
2017-Dec-13 16:00N 09°22' W 079°53'3 5.7
2017-Dec-13 15:30N 09°25' W 079°53'2 4.2
2017-Dec-13 15:00N 09°27' W 079°53'5 9.4
2017-Dec-13 14:30N 09°32' W 079°52'510.0
2017-Dec-13 14:00N 09°37' W 079°51'6 9.4
2017-Dec-13 13:22N 09°42' W 079°50'  
Track history (hours):
 
Tides and Currents Weather Stations Pressure Air Temp Water Temp Dewpoint Dewpoint Depression Visibility Wind Speed Wind Dir Waves Ship Positions

Yerupaja

Last reported at 2017-Dec-14 18:30 UTC. Time now 2017-Dec-15 16:07 UTC.
Position N 09°21' W 079°53'.

Length 140 m; draft 6.1 m.

Type: Ship (hazmat cat A). MMSI: 563587000.

Date/timePositionNaut miles runAvg speedWind from/ knotsBaromVisibWave heightAir tempDewpointWater temp
2017-Dec-14 18:30N 09°21' W 079°53'0 0.0
2017-Dec-14 18:00N 09°21' W 079°53'0 0.0
2017-Dec-14 17:30N 09°21' W 079°53'0 0.0
2017-Dec-14 17:00N 09°21' W 079°53'0 0.0
2017-Dec-14 16:30N 09°21' W 079°53'0 0.0
2017-Dec-14 16:00N 09°21' W 079°53'0 0.0
2017-Dec-14 15:00N 09°21' W 079°53'0 0.0
2017-Dec-14 14:30N 09°21' W 079°53'0 0.0
2017-Dec-14 14:00N 09°21' W 079°53'0 0.0
2017-Dec-14 13:30N 09°21' W 079°53'0 0.0
2017-Dec-14 13:00N 09°21' W 079°53'0 0.0
2017-Dec-14 12:30N 09°21' W 079°53'1 2.2
2017-Dec-14 12:00N 09°22' W 079°54'4 8.2
2017-Dec-14 11:30N 09°26' W 079°52'1 0.8
2017-Dec-14 10:52N 09°27' W 079°52'0 0.0
2017-Dec-14 10:28N 09°27' W 079°52'0 0.0
2017-Dec-14 09:57N 09°27' W 079°52'0 0.0
2017-Dec-14 09:29N 09°27' W 079°52'0 0.0
2017-Dec-14 08:59N 09°27' W 079°52'0 0.0
2017-Dec-14 08:28N 09°27' W 079°52'0 0.0
2017-Dec-14 08:00N 09°27' W 079°52'0 0.0
2017-Dec-14 07:30N 09°27' W 079°52'0 0.0
2017-Dec-14 07:00N 09°27' W 079°52'0 0.0
2017-Dec-14 06:29N 09°27' W 079°52'0 0.1
2017-Dec-14 06:00N 09°27' W 079°52'0 0.0
2017-Dec-14 05:30N 09°27' W 079°52'0 0.0
2017-Dec-14 04:59N 09°27' W 079°52'0 0.0
2017-Dec-14 04:30N 09°27' W 079°52'0 0.0
2017-Dec-14 04:00N 09°27' W 079°52'0 0.0
2017-Dec-14 03:30N 09°27' W 079°52'0 0.0
2017-Dec-14 03:00N 09°27' W 079°52'0 0.1
2017-Dec-14 02:29N 09°27' W 079°52'0 0.1
2017-Dec-14 02:00N 09°27' W 079°52'0 0.0
2017-Dec-14 01:31N 09°27' W 079°52'0 0.0
2017-Dec-14 01:00N 09°27' W 079°52'0 0.0
2017-Dec-14 00:30N 09°27' W 079°52'0 0.0
2017-Dec-13 23:59N 09°27' W 079°52'0 0.0
2017-Dec-13 23:31N 09°27' W 079°52'0 0.2
2017-Dec-13 23:00N 09°27' W 079°52'2 4.4
2017-Dec-13 22:31N 09°25' W 079°54'3 4.7
2017-Dec-13 21:59N 09°22' W 079°53'0 0.0
2017-Dec-13 21:29N 09°22' W 079°53'0 0.0
2017-Dec-13 20:59N 09°22' W 079°53'0 0.0
2017-Dec-13 20:29N 09°22' W 079°53'0 0.0
2017-Dec-13 19:59N 09°22' W 079°53'0 0.0
2017-Dec-13 19:29N 09°22' W 079°53'0 0.0
2017-Dec-13 18:56N 09°22' W 079°53'0 0.0
2017-Dec-13 18:29N 09°22' W 079°53'0 0.0
2017-Dec-13 17:59N 09°22' W 079°53'0 0.0
2017-Dec-13 17:29N 09°22' W 079°53'0 0.0
2017-Dec-13 16:59N 09°22' W 079°53'0 0.0
2017-Dec-13 16:29N 09°22' W 079°53'0 0.2
2017-Dec-13 16:00N 09°22' W 079°53'3 5.7
2017-Dec-13 15:30N 09°25' W 079°53'2 4.2
2017-Dec-13 15:00N 09°27' W 079°53'5 9.4
2017-Dec-13 14:30N 09°32' W 079°52'510.0
2017-Dec-13 14:00N 09°37' W 079°51'6 9.4
2017-Dec-13 13:22N 09°42' W 079°50'  

Dump ship's entire track history